sensor_id;sensor_type;location;lat;lon;timestamp;pressure;altitude;pressure_sealevel;temperature;humidity
6565;BME280;3316;44.118;27.258;2022-07-17T00:01:14;101157.88;;;23.26;100.00
6565;BME280;3316;44.118;27.258;2022-07-17T00:03:39;101151.22;;;23.00;100.00
6565;BME280;3316;44.118;27.258;2022-07-17T00:06:05;101152.94;;;22.85;100.00
6565;BME280;3316;44.118;27.258;2022-07-17T00:08:31;101162.19;;;22.80;100.00
6565;BME280;3316;44.118;27.258;2022-07-17T00:10:57;101160.00;;;22.86;100.00
6565;BME280;3316;44.118;27.258;2022-07-17T00:13:24;101159.09;;;22.87;100.00
6565;BME280;3316;44.118;27.258;2022-07-17T00:15:50;101170.59;;;22.89;100.00
6565;BME280;3316;44.118;27.258;2022-07-17T00:18:15;101170.84;;;22.85;100.00
6565;BME280;3316;44.118;27.258;2022-07-17T00:20:41;101168.25;;;22.83;100.00
6565;BME280;3316;44.118;27.258;2022-07-17T00:23:08;101173.34;;;22.88;100.00
6565;BME280;3316;44.118;27.258;2022-07-17T00:25:34;101166.16;;;22.88;100.00
6565;BME280;3316;44.118;27.258;2022-07-17T00:27:59;101174.78;;;22.95;100.00
6565;BME280;3316;44.118;27.258;2022-07-17T00:30:25;101177.75;;;23.06;100.00
6565;BME280;3316;44.118;27.258;2022-07-17T00:32:50;101176.34;;;22.99;100.00
6565;BME280;3316;44.118;27.258;2022-07-17T00:35:16;101175.16;;;23.05;100.00
6565;BME280;3316;44.118;27.258;2022-07-17T00:37:43;101154.66;;;22.86;100.00
6565;BME280;3316;44.118;27.258;2022-07-17T00:40:10;101180.16;;;22.95;100.00
6565;BME280;3316;44.118;27.258;2022-07-17T00:42:39;101176.19;;;23.02;100.00
6565;BME280;3316;44.118;27.258;2022-07-17T00:45:07;101173.81;;;23.13;100.00
6565;BME280;3316;44.118;27.258;2022-07-17T00:47:32;101172.25;;;23.09;100.00
6565;BME280;3316;44.118;27.258;2022-07-17T00:49:58;101176.81;;;23.07;100.00
6565;BME280;3316;44.118;27.258;2022-07-17T00:52:24;101171.22;;;22.94;100.00
6565;BME280;3316;44.118;27.258;2022-07-17T00:54:50;101173.03;;;22.94;100.00
6565;BME280;3316;44.118;27.258;2022-07-17T00:57:16;101175.66;;;22.95;100.00
6565;BME280;3316;44.118;27.258;2022-07-17T00:59:43;101171.69;;;23.02;100.00
6565;BME280;3316;44.118;27.258;2022-07-17T01:02:11;101164.66;;;23.00;100.00
6565;BME280;3316;44.118;27.258;2022-07-17T01:04:37;101172.69;;;23.00;100.00
6565;BME280;3316;44.118;27.258;2022-07-17T01:07:04;101177.47;;;22.95;100.00
6565;BME280;3316;44.118;27.258;2022-07-17T01:09:31;101164.44;;;22.87;100.00
6565;BME280;3316;44.118;27.258;2022-07-17T01:11:57;101179.69;;;22.87;100.00
6565;BME280;3316;44.118;27.258;2022-07-17T01:14:23;101151.34;;;22.81;100.00
6565;BME280;3316;44.118;27.258;2022-07-17T01:16:50;101178.66;;;22.89;100.00
6565;BME280;3316;44.118;27.258;2022-07-17T01:19:16;101182.19;;;22.90;100.00
6565;BME280;3316;44.118;27.258;2022-07-17T01:21:43;101160.72;;;22.90;100.00
6565;BME280;3316;44.118;27.258;2022-07-17T01:24:09;101177.59;;;22.92;100.00
6565;BME280;3316;44.118;27.258;2022-07-17T01:26:35;101174.13;;;22.90;100.00
6565;BME280;3316;44.118;27.258;2022-07-17T01:29:00;101179.13;;;22.80;100.00
6565;BME280;3316;44.118;27.258;2022-07-17T01:31:26;101163.91;;;22.64;100.00
6565;BME280;3316;44.118;27.258;2022-07-17T01:33:51;101179.84;;;22.67;100.00
6565;BME280;3316;44.118;27.258;2022-07-17T01:36:24;101173.94;;;22.60;100.00
6565;BME280;3316;44.118;27.258;2022-07-17T01:38:50;101178.81;;;22.69;100.00
6565;BME280;3316;44.118;27.258;2022-07-17T01:41:16;101176.63;;;22.60;100.00
6565;BME280;3316;44.118;27.258;2022-07-17T01:43:42;101185.34;;;22.47;100.00
6565;BME280;3316;44.118;27.258;2022-07-17T01:46:07;101159.44;;;22.46;100.00
6565;BME280;3316;44.118;27.258;2022-07-17T01:48:33;101191.66;;;22.63;100.00
6565;BME280;3316;44.118;27.258;2022-07-17T01:50:58;101186.03;;;22.50;100.00
6565;BME280;3316;44.118;27.258;2022-07-17T01:53:24;101190.22;;;22.39;100.00
6565;BME280;3316;44.118;27.258;2022-07-17T01:55:49;101184.19;;;22.34;100.00
6565;BME280;3316;44.118;27.258;2022-07-17T01:58:15;101178.19;;;22.29;100.00
6565;BME280;3316;44.118;27.258;2022-07-17T02:00:41;101189.06;;;22.26;100.00
6565;BME280;3316;44.118;27.258;2022-07-17T02:03:07;101196.47;;;22.21;100.00
6565;BME280;3316;44.118;27.258;2022-07-17T02:05:32;101190.31;;;22.19;100.00
6565;BME280;3316;44.118;27.258;2022-07-17T02:07:58;101192.38;;;22.13;100.00
6565;BME280;3316;44.118;27.258;2022-07-17T02:10:23;101189.53;;;22.17;100.00
6565;BME280;3316;44.118;27.258;2022-07-17T02:12:49;101189.69;;;22.13;100.00
6565;BME280;3316;44.118;27.258;2022-07-17T02:15:14;101186.22;;;22.11;100.00
6565;BME280;3316;44.118;27.258;2022-07-17T02:17:41;101193.97;;;22.18;100.00
6565;BME280;3316;44.118;27.258;2022-07-17T02:20:07;101190.25;;;22.20;100.00
6565;BME280;3316;44.118;27.258;2022-07-17T02:22:33;101195.66;;;22.01;100.00
6565;BME280;3316;44.118;27.258;2022-07-17T02:24:59;101185.72;;;22.03;100.00
6565;BME280;3316;44.118;27.258;2022-07-17T02:27:24;101195.47;;;22.04;100.00
6565;BME280;3316;44.118;27.258;2022-07-17T02:29:50;101197.16;;;22.07;100.00
6565;BME280;3316;44.118;27.258;2022-07-17T02:32:15;101183.34;;;21.97;100.00
6565;BME280;3316;44.118;27.258;2022-07-17T02:34:41;101185.41;;;22.09;100.00
6565;BME280;3316;44.118;27.258;2022-07-17T02:37:06;101202.63;;;22.23;100.00
6565;BME280;3316;44.118;27.258;2022-07-17T02:39:32;101195.91;;;22.14;100.00
6565;BME280;3316;44.118;27.258;2022-07-17T02:41:57;101204.97;;;22.11;100.00
6565;BME280;3316;44.118;27.258;2022-07-17T02:44:23;101212.66;;;22.19;100.00
6565;BME280;3316;44.118;27.258;2022-07-17T02:46:48;101213.56;;;22.37;100.00
6565;BME280;3316;44.118;27.258;2022-07-17T02:49:14;101215.28;;;22.38;100.00
6565;BME280;3316;44.118;27.258;2022-07-17T02:51:40;101217.56;;;22.45;100.00
6565;BME280;3316;44.118;27.258;2022-07-17T02:54:06;101220.59;;;22.56;100.00
6565;BME280;3316;44.118;27.258;2022-07-17T02:56:31;101226.72;;;22.60;100.00
6565;BME280;3316;44.118;27.258;2022-07-17T02:58:57;101231.50;;;22.70;100.00
6565;BME280;3316;44.118;27.258;2022-07-17T03:01:22;101229.16;;;22.81;100.00
6565;BME280;3316;44.118;27.258;2022-07-17T03:03:48;101232.84;;;22.96;100.00
6565;BME280;3316;44.118;27.258;2022-07-17T03:06:13;101252.13;;;23.04;100.00
6565;BME280;3316;44.118;27.258;2022-07-17T03:08:38;101253.94;;;23.21;100.00
6565;BME280;3316;44.118;27.258;2022-07-17T03:11:04;101248.81;;;23.16;100.00
6565;BME280;3316;44.118;27.258;2022-07-17T03:13:29;101264.75;;;23.19;100.00
6565;BME280;3316;44.118;27.258;2022-07-17T03:15:55;101262.94;;;23.20;100.00
6565;BME280;3316;44.118;27.258;2022-07-17T03:18:20;101260.09;;;23.06;100.00
6565;BME280;3316;44.118;27.258;2022-07-17T03:20:46;101277.22;;;23.20;100.00
6565;BME280;3316;44.118;27.258;2022-07-17T03:23:11;101269.97;;;23.39;100.00
6565;BME280;3316;44.118;27.258;2022-07-17T03:25:37;101287.63;;;23.60;100.00
6565;BME280;3316;44.118;27.258;2022-07-17T03:28:02;101276.06;;;23.75;100.00
6565;BME280;3316;44.118;27.258;2022-07-17T03:30:28;101284.81;;;24.12;100.00
6565;BME280;3316;44.118;27.258;2022-07-17T03:32:53;101263.53;;;24.38;100.00
6565;BME280;3316;44.118;27.258;2022-07-17T03:35:19;101284.81;;;24.74;100.00
6565;BME280;3316;44.118;27.258;2022-07-17T03:37:44;101278.94;;;24.97;100.00
6565;BME280;3316;44.118;27.258;2022-07-17T03:40:10;101277.25;;;25.24;100.00
6565;BME280;3316;44.118;27.258;2022-07-17T03:42:36;101264.88;;;25.36;100.00
6565;BME280;3316;44.118;27.258;2022-07-17T03:45:01;101297.38;;;25.48;100.00
6565;BME280;3316;44.118;27.258;2022-07-17T03:47:27;101298.44;;;25.74;100.00
6565;BME280;3316;44.118;27.258;2022-07-17T03:49:52;101295.72;;;26.02;100.00
6565;BME280;3316;44.118;27.258;2022-07-17T03:52:18;101297.16;;;26.36;100.00
6565;BME280;3316;44.118;27.258;2022-07-17T03:54:43;101307.84;;;26.78;100.00
6565;BME280;3316;44.118;27.258;2022-07-17T03:57:09;101305.78;;;27.21;100.00
6565;BME280;3316;44.118;27.258;2022-07-17T03:59:34;101306.75;;;27.34;100.00
6565;BME280;3316;44.118;27.258;2022-07-17T04:02:00;101307.00;;;27.29;100.00
6565;BME280;3316;44.118;27.258;2022-07-17T04:04:25;101312.28;;;27.83;100.00
6565;BME280;3316;44.118;27.258;2022-07-17T04:06:51;101320.47;;;28.19;100.00
6565;BME280;3316;44.118;27.258;2022-07-17T04:09:16;101319.84;;;28.15;100.00
6565;BME280;3316;44.118;27.258;2022-07-17T04:11:42;101301.34;;;27.72;100.00
6565;BME280;3316;44.118;27.258;2022-07-17T04:14:07;101332.16;;;28.20;100.00
6565;BME280;3316;44.118;27.258;2022-07-17T04:16:33;101338.28;;;28.47;99.46
6565;BME280;3316;44.118;27.258;2022-07-17T04:18:58;101331.53;;;27.66;100.00
6565;BME280;3316;44.118;27.258;2022-07-17T04:21:24;101339.13;;;27.98;97.42
6565;BME280;3316;44.118;27.258;2022-07-17T04:23:49;101335.00;;;28.18;96.96
6565;BME280;3316;44.118;27.258;2022-07-17T04:26:14;101336.78;;;28.55;92.57
6565;BME280;3316;44.118;27.258;2022-07-17T04:28:40;101327.84;;;28.89;90.60
6565;BME280;3316;44.118;27.258;2022-07-17T04:31:06;101335.22;;;29.46;87.87
6565;BME280;3316;44.118;27.258;2022-07-17T04:33:32;101340.78;;;29.55;85.44
6565;BME280;3316;44.118;27.258;2022-07-17T04:35:58;101338.63;;;29.02;88.71
6565;BME280;3316;44.118;27.258;2022-07-17T04:38:23;101347.72;;;29.14;85.35
6565;BME280;3316;44.118;27.258;2022-07-17T04:40:49;101322.25;;;29.27;84.65
6565;BME280;3316;44.118;27.258;2022-07-17T04:43:14;101347.63;;;29.61;82.41
6565;BME280;3316;44.118;27.258;2022-07-17T04:45:40;101362.34;;;29.46;80.56
6565;BME280;3316;44.118;27.258;2022-07-17T04:48:05;101351.31;;;29.01;82.21
6565;BME280;3316;44.118;27.258;2022-07-17T04:50:31;101362.16;;;29.01;83.99
6565;BME280;3316;44.118;27.258;2022-07-17T04:52:58;101355.44;;;28.22;89.00
6565;BME280;3316;44.118;27.258;2022-07-17T04:55:25;101352.00;;;28.69;85.16
6565;BME280;3316;44.118;27.258;2022-07-17T04:57:50;101365.31;;;28.95;84.31
6565;BME280;3316;44.118;27.258;2022-07-17T05:00:16;101361.16;;;29.02;83.93
6565;BME280;3316;44.118;27.258;2022-07-17T05:02:42;101367.41;;;28.92;82.01
6565;BME280;3316;44.118;27.258;2022-07-17T05:05:08;101371.47;;;28.00;84.80
6565;BME280;3316;44.118;27.258;2022-07-17T05:07:33;101367.31;;;27.44;90.52
6565;BME280;3316;44.118;27.258;2022-07-17T05:09:59;101376.13;;;27.34;91.78
6565;BME280;3316;44.118;27.258;2022-07-17T05:12:24;101366.88;;;27.50;92.58
6565;BME280;3316;44.118;27.258;2022-07-17T05:14:50;101363.22;;;27.76;91.75
6565;BME280;3316;44.118;27.258;2022-07-17T05:17:15;101368.53;;;27.90;92.22
6565;BME280;3316;44.118;27.258;2022-07-17T05:19:41;101346.78;;;27.67;94.88
6565;BME280;3316;44.118;27.258;2022-07-17T05:22:06;101377.81;;;27.74;95.20
6565;BME280;3316;44.118;27.258;2022-07-17T05:24:32;101371.22;;;27.65;95.73
6565;BME280;3316;44.118;27.258;2022-07-17T05:26:59;101367.50;;;27.41;96.45
6565;BME280;3316;44.118;27.258;2022-07-17T05:29:25;101373.38;;;27.60;96.90
6565;BME280;3316;44.118;27.258;2022-07-17T05:31:50;101378.38;;;27.79;94.57
6565;BME280;3316;44.118;27.258;2022-07-17T05:34:16;101392.03;;;28.28;91.14
6565;BME280;3316;44.118;27.258;2022-07-17T05:36:41;101385.06;;;27.61;92.85
6565;BME280;3316;44.118;27.258;2022-07-17T05:39:06;101379.88;;;27.70;95.11
6565;BME280;3316;44.118;27.258;2022-07-17T05:41:33;101381.19;;;28.15;91.57
6565;BME280;3316;44.118;27.258;2022-07-17T05:43:59;101386.81;;;28.37;90.50
6565;BME280;3316;44.118;27.258;2022-07-17T05:46:24;101388.41;;;28.52;88.18
6565;BME280;3316;44.118;27.258;2022-07-17T05:48:50;101392.75;;;28.42;88.90
6565;BME280;3316;44.118;27.258;2022-07-17T05:51:15;101390.91;;;27.67;92.55
6565;BME280;3316;44.118;27.258;2022-07-17T05:53:41;101393.63;;;27.80;92.84
6565;BME280;3316;44.118;27.258;2022-07-17T05:56:06;101387.50;;;28.28;89.15
6565;BME280;3316;44.118;27.258;2022-07-17T05:58:32;101399.88;;;28.68;86.22
6565;BME280;3316;44.118;27.258;2022-07-17T06:00:57;101395.16;;;28.83;83.91
6565;BME280;3316;44.118;27.258;2022-07-17T06:03:23;101392.69;;;28.80;83.56
6565;BME280;3316;44.118;27.258;2022-07-17T06:05:48;101390.63;;;28.83;84.10
6565;BME280;3316;44.118;27.258;2022-07-17T06:08:14;101386.41;;;29.03;80.31
6565;BME280;3316;44.118;27.258;2022-07-17T06:10:39;101403.41;;;29.41;76.56
6565;BME280;3316;44.118;27.258;2022-07-17T06:13:05;101405.84;;;29.44;75.14
6565;BME280;3316;44.118;27.258;2022-07-17T06:15:31;101397.41;;;29.60;71.48
6565;BME280;3316;44.118;27.258;2022-07-17T06:18:01;101407.38;;;29.83;71.91
6565;BME280;3316;44.118;27.258;2022-07-17T06:20:26;101409.59;;;29.89;69.12
6565;BME280;3316;44.118;27.258;2022-07-17T06:22:52;101413.94;;;30.03;68.40
6565;BME280;3316;44.118;27.258;2022-07-17T06:25:17;101420.25;;;30.03;69.83
6565;BME280;3316;44.118;27.258;2022-07-17T06:27:43;101392.75;;;30.08;67.91
6565;BME280;3316;44.118;27.258;2022-07-17T06:30:10;101407.81;;;30.23;68.11
6565;BME280;3316;44.118;27.258;2022-07-17T06:32:36;101409.50;;;30.13;68.10
6565;BME280;3316;44.118;27.258;2022-07-17T06:35:01;101417.34;;;30.50;63.71
6565;BME280;3316;44.118;27.258;2022-07-17T06:37:27;101417.09;;;30.53;62.44
6565;BME280;3316;44.118;27.258;2022-07-17T06:39:52;101413.00;;;30.48;63.50
6565;BME280;3316;44.118;27.258;2022-07-17T06:42:18;101407.19;;;30.86;61.66
6565;BME280;3316;44.118;27.258;2022-07-17T06:44:43;101418.03;;;30.97;60.67
6565;BME280;3316;44.118;27.258;2022-07-17T06:47:09;101422.84;;;30.82;61.54
6565;BME280;3316;44.118;27.258;2022-07-17T06:49:34;101422.41;;;29.87;61.91
6565;BME280;3316;44.118;27.258;2022-07-17T06:52:00;101420.13;;;30.05;64.37
6565;BME280;3316;44.118;27.258;2022-07-17T06:54:26;101425.81;;;30.24;64.40
6565;BME280;3316;44.118;27.258;2022-07-17T06:56:52;101421.88;;;30.61;62.41
6565;BME280;3316;44.118;27.258;2022-07-17T06:59:18;101424.06;;;30.78;61.28
6565;BME280;3316;44.118;27.258;2022-07-17T07:01:44;101429.56;;;30.89;58.03
6565;BME280;3316;44.118;27.258;2022-07-17T07:04:09;101424.34;;;30.86;58.22
6565;BME280;3316;44.118;27.258;2022-07-17T07:06:35;101391.44;;;31.43;54.90
6565;BME280;3316;44.118;27.258;2022-07-17T07:09:00;101431.25;;;31.96;52.78
6565;BME280;3316;44.118;27.258;2022-07-17T07:11:26;101443.00;;;32.17;52.86
6565;BME280;3316;44.118;27.258;2022-07-17T07:13:51;101432.28;;;32.05;53.19
6565;BME280;3316;44.118;27.258;2022-07-17T07:16:17;101437.75;;;32.05;53.09
6565;BME280;3316;44.118;27.258;2022-07-17T07:18:43;101383.47;;;31.72;51.91
6565;BME280;3316;44.118;27.258;2022-07-17T07:21:08;101443.25;;;31.73;53.39
6565;BME280;3316;44.118;27.258;2022-07-17T07:23:34;101448.22;;;31.36;53.01
6565;BME280;3316;44.118;27.258;2022-07-17T07:25:59;101447.56;;;30.90;54.08
6565;BME280;3316;44.118;27.258;2022-07-17T07:28:25;101441.09;;;31.13;54.49
6565;BME280;3316;44.118;27.258;2022-07-17T07:30:50;101424.72;;;30.37;58.63
6565;BME280;3316;44.118;27.258;2022-07-17T07:33:16;101431.84;;;30.05;63.07
6565;BME280;3316;44.118;27.258;2022-07-17T07:35:42;101438.31;;;30.59;64.04
6565;BME280;3316;44.118;27.258;2022-07-17T07:38:08;101440.53;;;30.99;62.11
6565;BME280;3316;44.118;27.258;2022-07-17T07:40:34;101446.28;;;31.16;59.11
6565;BME280;3316;44.118;27.258;2022-07-17T07:43:00;101449.34;;;31.23;59.61
6565;BME280;3316;44.118;27.258;2022-07-17T07:45:25;101447.72;;;31.31;59.51
6565;BME280;3316;44.118;27.258;2022-07-17T07:47:51;101449.84;;;31.28;58.44
6565;BME280;3316;44.118;27.258;2022-07-17T07:50:17;101443.00;;;31.33;58.93
6565;BME280;3316;44.118;27.258;2022-07-17T07:52:44;101449.56;;;31.42;56.96
6565;BME280;3316;44.118;27.258;2022-07-17T07:55:11;101448.53;;;31.54;55.81
6565;BME280;3316;44.118;27.258;2022-07-17T07:57:37;101437.25;;;31.16;58.55
6565;BME280;3316;44.118;27.258;2022-07-17T08:00:07;101440.78;;;31.38;60.20
6565;BME280;3316;44.118;27.258;2022-07-17T08:02:33;101447.44;;;31.77;57.32
6565;BME280;3316;44.118;27.258;2022-07-17T08:04:58;101441.19;;;31.66;56.23
6565;BME280;3316;44.118;27.258;2022-07-17T08:07:28;101440.31;;;31.65;57.56
6565;BME280;3316;44.118;27.258;2022-07-17T08:09:53;101436.22;;;31.91;54.60
6565;BME280;3316;44.118;27.258;2022-07-17T08:12:19;101446.28;;;31.80;54.48
6565;BME280;3316;44.118;27.258;2022-07-17T08:14:45;101444.44;;;31.80;51.09
6565;BME280;3316;44.118;27.258;2022-07-17T08:17:11;101442.59;;;31.81;51.48
6565;BME280;3316;44.118;27.258;2022-07-17T08:19:36;101440.25;;;31.55;53.11
6565;BME280;3316;44.118;27.258;2022-07-17T08:22:02;101446.19;;;31.49;54.96
6565;BME280;3316;44.118;27.258;2022-07-17T08:24:27;101447.22;;;31.90;53.20
6565;BME280;3316;44.118;27.258;2022-07-17T08:26:52;101436.56;;;31.98;52.77
6565;BME280;3316;44.118;27.258;2022-07-17T08:29:18;101456.47;;;32.39;51.44
6565;BME280;3316;44.118;27.258;2022-07-17T08:31:43;101461.56;;;32.33;51.68
6565;BME280;3316;44.118;27.258;2022-07-17T08:34:09;101417.00;;;32.34;49.77
6565;BME280;3316;44.118;27.258;2022-07-17T08:36:35;101462.91;;;32.99;47.23
6565;BME280;3316;44.118;27.258;2022-07-17T08:39:00;101465.25;;;33.22;49.10
6565;BME280;3316;44.118;27.258;2022-07-17T08:41:28;101458.31;;;32.99;48.25
6565;BME280;3316;44.118;27.258;2022-07-17T08:43:53;101464.38;;;33.22;46.54
6565;BME280;3316;44.118;27.258;2022-07-17T08:46:23;101465.97;;;32.85;46.69
6565;BME280;3316;44.118;27.258;2022-07-17T08:48:54;101468.16;;;32.51;47.55
6565;BME280;3316;44.118;27.258;2022-07-17T08:51:22;101462.41;;;32.03;50.77
6565;BME280;3316;44.118;27.258;2022-07-17T08:53:47;101452.25;;;32.56;49.02
6565;BME280;3316;44.118;27.258;2022-07-17T08:56:13;101461.13;;;32.88;46.58
6565;BME280;3316;44.118;27.258;2022-07-17T08:58:38;101460.06;;;33.10;44.64
6565;BME280;3316;44.118;27.258;2022-07-17T09:01:04;101466.69;;;33.17;44.75
6565;BME280;3316;44.118;27.258;2022-07-17T09:03:29;101454.50;;;33.31;43.88
6565;BME280;3316;44.118;27.258;2022-07-17T09:05:55;101433.53;;;32.72;45.41
6565;BME280;3316;44.118;27.258;2022-07-17T09:08:22;101457.00;;;32.33;46.39
6565;BME280;3316;44.118;27.258;2022-07-17T09:10:50;101449.22;;;32.29;47.49
6565;BME280;3316;44.118;27.258;2022-07-17T09:13:25;101464.56;;;32.81;45.12
6565;BME280;3316;44.118;27.258;2022-07-17T09:15:54;101461.53;;;33.23;45.61
6565;BME280;3316;44.118;27.258;2022-07-17T09:18:21;101429.38;;;33.27;43.20
6565;BME280;3316;44.118;27.258;2022-07-17T09:20:53;101459.63;;;33.14;43.34
6565;BME280;3316;44.118;27.258;2022-07-17T09:23:21;101454.53;;;33.59;43.09
6565;BME280;3316;44.118;27.258;2022-07-17T09:25:49;101466.03;;;33.82;42.11
6565;BME280;3316;44.118;27.258;2022-07-17T09:28:16;101464.69;;;33.38;42.35
6565;BME280;3316;44.118;27.258;2022-07-17T09:30:47;101456.88;;;33.05;41.78
6565;BME280;3316;44.118;27.258;2022-07-17T09:33:18;101459.53;;;33.35;42.07
6565;BME280;3316;44.118;27.258;2022-07-17T09:35:52;101469.72;;;33.23;42.26
6565;BME280;3316;44.118;27.258;2022-07-17T09:38:26;101460.97;;;33.30;41.96
6565;BME280;3316;44.118;27.258;2022-07-17T09:41:01;101463.72;;;33.39;42.92
6565;BME280;3316;44.118;27.258;2022-07-17T09:43:49;101466.75;;;33.84;41.73
6565;BME280;3316;44.118;27.258;2022-07-17T09:46:21;101464.84;;;33.84;39.78
6565;BME280;3316;44.118;27.258;2022-07-17T09:48:58;101471.63;;;33.61;40.08
6565;BME280;3316;44.118;27.258;2022-07-17T09:51:25;101468.16;;;33.40;40.75
6565;BME280;3316;44.118;27.258;2022-07-17T09:53:53;101473.59;;;33.40;41.29
6565;BME280;3316;44.118;27.258;2022-07-17T09:56:21;101473.03;;;33.27;41.71
6565;BME280;3316;44.118;27.258;2022-07-17T09:58:49;101472.13;;;33.17;41.11
6565;BME280;3316;44.118;27.258;2022-07-17T10:01:16;101465.94;;;32.75;40.49
6565;BME280;3316;44.118;27.258;2022-07-17T10:03:42;101474.31;;;32.32;39.41
6565;BME280;3316;44.118;27.258;2022-07-17T10:06:10;101463.22;;;32.24;39.65
6565;BME280;3316;44.118;27.258;2022-07-17T10:08:36;101456.59;;;32.98;36.34
6565;BME280;3316;44.118;27.258;2022-07-17T10:11:03;101459.22;;;33.19;36.99
6565;BME280;3316;44.118;27.258;2022-07-17T10:13:30;101457.78;;;33.34;35.80
6565;BME280;3316;44.118;27.258;2022-07-17T10:15:56;101461.41;;;32.95;37.06
6565;BME280;3316;44.118;27.258;2022-07-17T10:18:43;101451.91;;;33.10;38.17
6565;BME280;3316;44.118;27.258;2022-07-17T10:23:34;101454.97;;;33.64;36.67
6565;BME280;3316;44.118;27.258;2022-07-17T10:25:59;101442.91;;;33.57;36.63
6565;BME280;3316;44.118;27.258;2022-07-17T10:28:25;101460.59;;;33.63;36.40
6565;BME280;3316;44.118;27.258;2022-07-17T10:30:50;101448.34;;;33.57;35.95
6565;BME280;3316;44.118;27.258;2022-07-17T10:33:16;101454.94;;;33.93;36.22
6565;BME280;3316;44.118;27.258;2022-07-17T10:35:47;101451.81;;;33.97;36.13
6565;BME280;3316;44.118;27.258;2022-07-17T10:38:14;101451.69;;;33.70;37.50
6565;BME280;3316;44.118;27.258;2022-07-17T10:40:41;101451.94;;;33.86;37.07
6565;BME280;3316;44.118;27.258;2022-07-17T10:43:08;101450.94;;;34.06;36.77
6565;BME280;3316;44.118;27.258;2022-07-17T10:45:39;101452.34;;;34.20;36.47
6565;BME280;3316;44.118;27.258;2022-07-17T10:48:13;101450.94;;;34.06;36.92
6565;BME280;3316;44.118;27.258;2022-07-17T10:56:08;101437.81;;;33.14;38.55
6565;BME280;3316;44.118;27.258;2022-07-17T10:58:37;101444.16;;;32.85;38.58
6565;BME280;3316;44.118;27.258;2022-07-17T11:01:04;101438.72;;;32.45;40.15
6565;BME280;3316;44.118;27.258;2022-07-17T11:03:32;101443.00;;;32.78;38.53
6565;BME280;3316;44.118;27.258;2022-07-17T11:08:36;101447.41;;;32.39;39.52
6565;BME280;3316;44.118;27.258;2022-07-17T11:11:01;101443.28;;;32.65;38.20
6565;BME280;3316;44.118;27.258;2022-07-17T11:13:27;101423.16;;;32.57;38.96
6565;BME280;3316;44.118;27.258;2022-07-17T11:15:52;101436.66;;;32.98;38.21
6565;BME280;3316;44.118;27.258;2022-07-17T11:18:19;101444.31;;;32.83;37.26
6565;BME280;3316;44.118;27.258;2022-07-17T11:21:01;101446.75;;;32.77;37.38
6565;BME280;3316;44.118;27.258;2022-07-17T11:23:30;101432.31;;;32.56;36.22
6565;BME280;3316;44.118;27.258;2022-07-17T11:28:33;101435.75;;;31.86;36.30
6565;BME280;3316;44.118;27.258;2022-07-17T11:30:59;101446.78;;;32.26;35.89
6565;BME280;3316;44.118;27.258;2022-07-17T11:33:25;101433.00;;;32.48;35.47
6565;BME280;3316;44.118;27.258;2022-07-17T11:35:50;101435.22;;;32.13;36.11
6565;BME280;3316;44.118;27.258;2022-07-17T11:38:24;101432.16;;;32.27;36.19
6565;BME280;3316;44.118;27.258;2022-07-17T11:40:49;101431.56;;;32.23;35.55
6565;BME280;3316;44.118;27.258;2022-07-17T11:43:15;101428.09;;;32.21;34.15
6565;BME280;3316;44.118;27.258;2022-07-17T11:45:44;101414.84;;;31.87;34.72
6565;BME280;3316;44.118;27.258;2022-07-17T11:48:09;101386.09;;;31.73;34.87
6565;BME280;3316;44.118;27.258;2022-07-17T11:50:35;101415.44;;;32.11;35.27
6565;BME280;3316;44.118;27.258;2022-07-17T11:53:05;101394.66;;;32.10;36.13
6565;BME280;3316;44.118;27.258;2022-07-17T11:55:40;101410.34;;;32.27;35.40
6565;BME280;3316;44.118;27.258;2022-07-17T11:58:07;101397.06;;;32.33;35.03
6565;BME280;3316;44.118;27.258;2022-07-17T12:00:33;101404.66;;;33.00;35.01
6565;BME280;3316;44.118;27.258;2022-07-17T12:03:01;101400.06;;;33.10;33.37
6565;BME280;3316;44.118;27.258;2022-07-17T12:05:29;101404.44;;;32.92;32.31
6565;BME280;3316;44.118;27.258;2022-07-17T12:07:55;101405.53;;;33.39;31.33
6565;BME280;3316;44.118;27.258;2022-07-17T12:10:23;101401.53;;;33.71;28.72
6565;BME280;3316;44.118;27.258;2022-07-17T12:18:04;101392.59;;;33.79;29.91
6565;BME280;3316;44.118;27.258;2022-07-17T12:20:41;101387.53;;;33.93;29.22
6565;BME280;3316;44.118;27.258;2022-07-17T12:23:07;101383.84;;;33.75;29.36
6565;BME280;3316;44.118;27.258;2022-07-17T12:25:32;101367.31;;;33.67;28.95
6565;BME280;3316;44.118;27.258;2022-07-17T12:27:58;101390.41;;;33.82;29.44
6565;BME280;3316;44.118;27.258;2022-07-17T12:30:23;101375.75;;;33.93;30.23
6565;BME280;3316;44.118;27.258;2022-07-17T12:32:48;101362.41;;;33.90;28.98
6565;BME280;3316;44.118;27.258;2022-07-17T12:35:15;101372.88;;;33.85;30.44
6565;BME280;3316;44.118;27.258;2022-07-17T12:37:40;101374.38;;;33.70;28.96
6565;BME280;3316;44.118;27.258;2022-07-17T12:40:08;101375.66;;;33.37;28.14
6565;BME280;3316;44.118;27.258;2022-07-17T12:42:34;101364.31;;;33.13;29.07
6565;BME280;3316;44.118;27.258;2022-07-17T12:44:59;101372.66;;;33.59;29.36
6565;BME280;3316;44.118;27.258;2022-07-17T12:47:25;101371.91;;;33.86;29.13
6565;BME280;3316;44.118;27.258;2022-07-17T12:49:50;101361.00;;;33.76;29.33
6565;BME280;3316;44.118;27.258;2022-07-17T12:52:16;101360.22;;;33.93;29.30
6565;BME280;3316;44.118;27.258;2022-07-17T12:54:41;101364.34;;;34.17;29.21
6565;BME280;3316;44.118;27.258;2022-07-17T12:57:06;101345.50;;;34.23;29.07
6565;BME280;3316;44.118;27.258;2022-07-17T12:59:32;101359.31;;;34.49;28.22
6565;BME280;3316;44.118;27.258;2022-07-17T13:01:58;101356.16;;;34.44;28.88
6565;BME280;3316;44.118;27.258;2022-07-17T13:04:24;101353.44;;;34.44;27.65
6565;BME280;3316;44.118;27.258;2022-07-17T13:06:49;101356.22;;;34.34;28.96
6565;BME280;3316;44.118;27.258;2022-07-17T13:09:15;101329.31;;;34.02;29.20
6565;BME280;3316;44.118;27.258;2022-07-17T13:11:42;101351.47;;;33.99;29.10